Ana Sayfa
METAR-TAF:

METAR-TAF

Havaalanları :

Nowra, Avustralya

Enlem: 34-57S, Boylam: 150-32E, yükseklik: 122 m

Güncel hava durumu gözlemi

Rapor saat 12:00 UTC de 31 dakika önce yapıldı.
Rüzgar kuzeydoğudan 8 kt
Sıcaklık 20°C
Nem 73%
Basınç 1021 hPa
Görüş mesafesi 10 km veya daha fazla
3700 ft yükseklikte çok bulutlu

METAR: YSNW 081200Z AUTO 05008KT 9999 // OVC037 20/15 Q1021

Saat: 23:31 (12:31 UTC)


TAF: eksik

4.000'den fazla havaalanı için hava durumu gözlemleri ve tahminleri (METAR ve TAF raporları).

Kullanılabilir istasyonlar harita üzerinde sarı ve kırmızı noktalarla gösterilir.

İstasyonun adını görmek için fareyi noktanın üzerinde gezdirin.

Sonrasında hava gözlem ve tahminlerini görmek için tıklayın.

Haritayı değiştirmek için: yaklaştırmak için siyah artı işaretli yeşil düğmeye ve uzaklaştırmak için de eksi işaretli düğmeye hızla tıklayın; bitişik haritalar için yeşil okları kullanın.


METAR-TAF: